Terminal Aerodrome Forecast
Issued by NWS

Home | Current Version | Previous Version | Text Only | Print | Product List | Glossary Off
Versions: 1 2 3 4 5 6 7 8 9 10 11 12

000
FTUS43 KOAX 191100
TAFCDR
TAF
KCDR 191120Z 1912/2012 13006KT P6SM SCT080
     FM191900 14015G25KT P6SM OVC050
      TEMPO 1919/1921 VRB20G35KT 5SM -TSRA BKN045CB
     FM200200 13011KT P6SM SKC=

USA.gov is the U.S. government's official web portal to all federal, state and local government web resources and services.